createdAt,value
2022-09-27T00:04:26.114Z,40.48984
2022-09-27T00:09:27.697Z,39.38304
2022-09-27T00:14:29.309Z,39.86982
2022-09-27T00:19:30.991Z,39.31339
2022-09-27T00:24:32.740Z,40.33918
2022-09-27T00:29:34.342Z,41.07996
2022-09-27T00:34:35.984Z,40.11319
2022-09-27T00:39:37.621Z,40.6866
2022-09-27T00:44:39.226Z,40.32769
2022-09-27T00:49:40.840Z,43.01907
2022-09-27T00:54:42.485Z,42.92567
2022-09-27T00:59:44.142Z,44.02306
2022-09-27T01:04:45.803Z,44.63828
2022-09-27T01:09:47.408Z,45.44585
2022-09-27T01:14:48.987Z,44.68082
2022-09-27T01:19:50.600Z,44.50568
2022-09-27T01:24:52.290Z,46.70153
2022-09-27T01:29:53.900Z,46.15418
2022-09-27T01:34:55.480Z,47.43096
2022-09-27T01:39:57.110Z,47.74814
2022-09-27T01:44:58.727Z,47.2737
2022-09-27T01:50:00.417Z,46.23999
2022-09-27T01:55:02.048Z,47.27666
2022-09-27T02:00:03.675Z,47.43917
2022-09-27T02:05:05.276Z,46.87497
2022-09-27T02:10:06.919Z,46.72921
2022-09-27T02:15:08.572Z,46.94544
2022-09-27T02:20:10.174Z,47.62795
2022-09-27T02:25:11.799Z,49.02531
2022-09-27T02:30:13.421Z,48.68856
2022-09-27T02:35:15.024Z,48.43151
2022-09-27T02:40:16.721Z,48.42603
2022-09-27T02:45:18.409Z,47.73464
2022-09-27T02:50:19.991Z,48.89082
2022-09-27T02:55:21.614Z,49.64141
2022-09-27T03:00:23.229Z,48.96494
2022-09-27T03:05:24.864Z,48.43747
2022-09-27T03:10:26.497Z,50.09396
2022-09-27T03:15:28.171Z,50.34667
2022-09-27T03:20:29.812Z,52.18158
2022-09-27T03:25:31.432Z,50.56821
2022-09-27T03:30:33.100Z,50.19882
2022-09-27T03:35:34.755Z,50.48537
2022-09-27T03:40:36.646Z,51.04228
2022-09-27T03:45:38.316Z,54.20792
2022-09-27T03:50:39.923Z,56.84085
2022-09-27T03:55:41.570Z,54.6332
2022-09-27T04:00:43.144Z,55.84291
2022-09-27T04:05:44.745Z,54.42586
2022-09-27T04:10:46.363Z,52.97939
2022-09-27T04:15:52.012Z,51.93078
2022-09-27T04:20:54.406Z,58.12164
2022-09-27T04:25:56.012Z,54.64492
2022-09-27T04:30:57.711Z,55.15578
2022-09-27T04:35:59.427Z,59.76158
2022-09-27T04:41:01.138Z,62.61457
2022-09-27T04:46:02.909Z,65.11315
2022-09-27T04:51:05.263Z,63.88014
2022-09-27T04:56:07.003Z,57.74642
2022-09-27T05:01:08.690Z,62.52788
2022-09-27T05:06:10.322Z,65.03917
2022-09-27T05:11:11.901Z,58.54655
2022-09-27T05:16:13.541Z,60.85468
2022-09-27T05:21:15.265Z,59.17151
2022-09-27T05:26:16.922Z,59.08338
2022-09-27T05:31:18.606Z,57.75336
2022-09-27T05:36:20.435Z,60.84643
2022-09-27T05:41:22.777Z,66.15906
2022-09-27T05:46:24.646Z,64.55283
2022-09-27T05:51:26.240Z,66.97788
2022-09-27T05:56:27.980Z,64.75138
2022-09-27T06:01:29.655Z,63.02087
2022-09-27T06:06:31.278Z,70.69324
2022-09-27T06:11:32.884Z,62.5625
2022-09-27T06:16:34.472Z,60.26581
2022-09-27T06:21:36.052Z,65.99667
2022-09-27T06:26:37.595Z,63.93097
2022-09-27T06:31:39.168Z,63.18464
2022-09-27T06:36:40.719Z,62.36879
2022-09-27T06:41:42.264Z,64.84962
2022-09-27T06:46:43.834Z,62.27126
2022-09-27T06:51:45.476Z,63.17511
2022-09-27T06:56:47.151Z,68.87515
2022-09-27T07:01:48.762Z,73.04836
2022-09-27T07:06:50.344Z,69.84597
2022-09-27T07:11:51.937Z,67.47014
2022-09-27T07:16:53.603Z,64.75147
2022-09-27T07:21:55.225Z,70.76024
2022-09-27T07:26:56.837Z,64.80498
2022-09-27T07:31:58.410Z,65.53813
2022-09-27T07:36:59.957Z,66.76439
2022-09-27T07:42:01.553Z,65.34811
2022-09-27T07:47:03.141Z,61.1742
2022-09-27T07:52:04.766Z,63.37129
2022-09-27T07:57:06.369Z,62.82315
2022-09-27T08:02:08.005Z,61.96743
2022-09-27T08:07:13.706Z,64.93522
2022-09-27T08:12:16.023Z,59.8262
2022-09-27T08:17:17.601Z,66.15296
2022-09-27T08:22:19.245Z,65.53955
2022-09-27T08:27:20.908Z,62.84059
2022-09-27T08:32:23.605Z,60.49334
2022-09-27T08:37:25.351Z,63.22391
2022-09-27T08:42:26.966Z,66.3146
2022-09-27T08:47:28.545Z,63.56974
2022-09-27T08:52:30.124Z,63.64629
2022-09-27T08:57:31.737Z,62.74249
2022-09-27T09:02:33.427Z,67.68835
2022-09-27T09:07:35.047Z,62.52239
2022-09-27T09:12:36.786Z,63.2567
2022-09-27T09:17:38.406Z,66.31385
2022-09-27T09:22:40.018Z,67.00609
2022-09-27T09:27:41.689Z,62.16804
2022-09-27T09:32:43.304Z,63.01147
2022-09-27T09:37:44.958Z,61.38529
2022-09-27T09:42:46.556Z,63.50276
2022-09-27T09:47:48.176Z,63.58088
2022-09-27T09:52:49.779Z,66.98501
2022-09-27T09:57:51.365Z,67.13026
2022-09-27T10:02:52.930Z,64.49552
2022-09-27T10:07:54.559Z,62.96055
2022-09-27T10:12:56.151Z,64.84985
2022-09-27T10:17:57.760Z,69.20708
2022-09-27T10:22:59.376Z,66.44239
2022-09-27T10:28:00.991Z,67.94071
2022-09-27T10:33:02.582Z,63.36318
2022-09-27T10:38:04.167Z,66.34732
2022-09-27T10:43:05.805Z,64.19652
2022-09-27T10:48:07.489Z,65.41062
2022-09-27T10:53:09.101Z,65.72987
2022-09-27T10:58:10.727Z,64.61288
2022-09-27T11:03:12.580Z,65.71433
2022-09-27T11:08:14.233Z,65.31025
2022-09-27T11:13:15.850Z,63.51675
2022-09-27T11:18:17.476Z,64.87438
2022-09-27T11:23:19.051Z,63.54631
2022-09-27T11:28:20.635Z,67.78127
2022-09-27T11:33:22.207Z,65.84031
2022-09-27T11:38:48.076Z,66.07799
2022-09-27T11:43:53.659Z,68.41716
2022-09-27T11:48:55.381Z,66.66146
2022-09-27T11:53:56.972Z,65.24543
2022-09-27T11:58:58.713Z,64.08814
2022-09-27T12:04:00.346Z,65.26751
2022-09-27T12:09:02.043Z,65.07568
2022-09-27T12:14:03.627Z,65.30076
2022-09-27T12:19:05.235Z,63.772
2022-09-27T12:24:06.812Z,66.74767
2022-09-27T12:29:08.400Z,65.29037
2022-09-27T12:34:10.021Z,63.15804
2022-09-27T12:39:11.683Z,64.40619
2022-09-27T12:44:13.492Z,66.19337
2022-09-27T12:49:15.366Z,67.68792
2022-09-27T12:54:17.266Z,65.17334
2022-09-27T12:59:18.869Z,65.37828
2022-09-27T13:04:20.470Z,64.95421
2022-09-27T13:09:22.127Z,66.11593
2022-09-27T13:14:23.747Z,64.77913
2022-09-27T13:19:27.210Z,65.30086
2022-09-27T13:24:28.940Z,65.57219
2022-09-27T13:29:30.590Z,68.78569
2022-09-27T13:34:32.184Z,65.51282
2022-09-27T13:39:33.787Z,73.85346
2022-09-27T13:44:35.421Z,66.67219
2022-09-27T13:49:37.022Z,66.92358
2022-09-27T13:54:38.582Z,71.11324
2022-09-27T13:59:40.217Z,72.59251
2022-09-27T14:04:41.800Z,65.95323
2022-09-27T14:09:43.400Z,68.21197
2022-09-27T14:14:45.058Z,69.30492
2022-09-27T14:19:46.663Z,65.44492
2022-09-27T14:24:48.247Z,70.28305
2022-09-27T14:29:49.834Z,71.91591
2022-09-27T14:34:51.423Z,69.10782
2022-09-27T14:39:53.050Z,68.99001
2022-09-27T14:44:54.634Z,65.80332
2022-09-27T14:49:56.251Z,65.02949
2022-09-27T14:54:57.854Z,67.04228
2022-09-27T14:59:59.444Z,66.05312
2022-09-27T15:05:01.103Z,70.47327
2022-09-27T15:10:02.750Z,69.24215
2022-09-27T15:15:04.357Z,70.83747
2022-09-27T15:20:05.989Z,66.13348
2022-09-27T15:25:07.695Z,67.8159
2022-09-27T15:30:09.987Z,65.39257
2022-09-27T15:35:11.562Z,62.81098
2022-09-27T15:40:13.147Z,63.6147
2022-09-27T15:45:14.757Z,61.1099
2022-09-27T15:50:16.326Z,65.18648
2022-09-27T15:55:17.930Z,59.44098
2022-09-27T16:00:19.620Z,56.97882
2022-09-27T16:05:21.217Z,55.93158
2022-09-27T16:10:22.989Z,54.96979
2022-09-27T16:15:24.572Z,57.46968
2022-09-27T16:20:26.200Z,54.27782
2022-09-27T16:25:27.838Z,57.94674
2022-09-27T16:30:29.424Z,54.76421
2022-09-27T16:35:31.023Z,54.9748
2022-09-27T16:40:32.698Z,49.57175
2022-09-27T16:45:34.292Z,47.94985
2022-09-27T16:50:35.935Z,48.06201
2022-09-27T16:55:37.508Z,50.14642
2022-09-27T17:00:39.099Z,46.62188
2022-09-27T17:05:40.763Z,46.01532
2022-09-27T17:10:42.377Z,45.43823
2022-09-27T17:15:44.011Z,44.05268
2022-09-27T17:20:45.673Z,43.63385
2022-09-27T17:25:47.332Z,43.55203
2022-09-27T17:30:49.060Z,43.94345
2022-09-27T17:35:50.663Z,41.14932
2022-09-27T17:40:52.288Z,38.13016
2022-09-27T17:45:53.950Z,36.99363
2022-09-27T17:50:55.617Z,34.74814
2022-09-27T17:55:57.234Z,35.35061
2022-09-27T18:01:00.990Z,36.16884
2022-09-27T18:06:02.845Z,34.46625
2022-09-27T18:11:04.491Z,37.21646
2022-09-27T18:16:06.173Z,35.5778
2022-09-27T18:21:07.845Z,37.1316
2022-09-27T18:26:09.424Z,34.70437
2022-09-27T18:31:11.170Z,37.18993
2022-09-27T18:36:12.787Z,38.28268
2022-09-27T18:41:14.441Z,39.19313
2022-09-27T18:46:34.490Z,36.10326
2022-09-27T18:51:37.841Z,36.27286
2022-09-27T18:56:39.767Z,34.42345
2022-09-27T19:01:41.444Z,34.07553
2022-09-27T19:06:43.092Z,34.91602
2022-09-27T19:11:44.676Z,34.61705
2022-09-27T19:16:46.339Z,33.37403
2022-09-27T19:21:47.970Z,32.53436
2022-09-27T19:26:49.610Z,33.12806
2022-09-27T19:31:51.391Z,34.38077
2022-09-27T19:36:53.070Z,34.49368
2022-09-27T19:41:54.699Z,31.36233
2022-09-27T19:46:56.451Z,30.30665
2022-09-27T19:51:58.111Z,28.98856
2022-09-27T19:56:59.699Z,28.1304
2022-09-27T20:02:01.402Z,27.45113
2022-09-27T20:07:03.052Z,27.77305
2022-09-27T20:12:04.708Z,26.28993
2022-09-27T20:17:06.397Z,27.99136
2022-09-27T20:22:08.027Z,28.19017
2022-09-27T20:27:09.613Z,28.92111
2022-09-27T20:32:27.290Z,27.06083
2022-09-27T20:37:29.434Z,27.36245
2022-09-27T20:42:31.129Z,27.98653
2022-09-27T20:47:32.780Z,26.82304
2022-09-27T20:52:34.443Z,25.30787
2022-09-27T20:57:56.321Z,25.9732
2022-09-27T21:02:59.361Z,28.27652
2022-09-27T21:08:00.990Z,28.8458
2022-09-27T21:13:02.603Z,28.80511
2022-09-27T21:18:04.189Z,28.41323
2022-09-27T21:23:05.833Z,29.0587
2022-09-27T21:28:07.384Z,29.27239
2022-09-27T21:33:08.975Z,30.02051
2022-09-27T21:38:10.594Z,29.47287
2022-09-27T21:43:12.265Z,30.39783
2022-09-27T21:48:13.932Z,29.50853
2022-09-27T21:53:15.549Z,29.15395
2022-09-27T21:58:17.159Z,29.13133
2022-09-27T22:03:18.782Z,28.08443
2022-09-27T22:08:20.370Z,29.48898
2022-09-27T22:13:21.971Z,27.41584
2022-09-27T22:18:23.558Z,27.98515
2022-09-27T22:23:25.187Z,27.08221
2022-09-27T22:28:26.811Z,27.46822
2022-09-27T22:33:28.476Z,26.99422
2022-09-27T22:38:30.122Z,28.33903
2022-09-27T22:43:31.727Z,29.54001
2022-09-27T22:48:33.364Z,26.96806
2022-09-27T22:53:34.983Z,25.9828
2022-09-27T22:58:36.893Z,27.00556
2022-09-27T23:03:38.609Z,27.70345
2022-09-27T23:08:40.217Z,27.10742
2022-09-27T23:13:41.835Z,26.76639
2022-09-27T23:18:43.487Z,29.43582
2022-09-27T23:23:45.150Z,27.74197
2022-09-27T23:28:46.812Z,30.07152
2022-09-27T23:33:48.413Z,29.55423
2022-09-27T23:38:50.026Z,29.8676
2022-09-27T23:43:51.655Z,29.91296
2022-09-27T23:48:53.253Z,29.26509
2022-09-27T23:53:54.878Z,29.42764
2022-09-27T23:58:56.453Z,32.85116
